Fishers, NY

12:37 AM EDT on July 31, 2015 (GMT -0400)
Wiley Estates | | Change Station
CLOSE
Current Station
Personal Weather Station
Location: Victor, NY
Elevation: 700 ft
Nearby Weather Stations

Elev 700 ft 43.01 °N, 77.41 °W | Updated 8 minutes ago

Clear
Clear
68.2 °F
Feels Like 68.2 °F
N
5.0
Wind Variable Wind from WNW
Gusts 5.0 mph

Today
High -- | Low -- °F
--% Chance of Precip.
Yesterday
High -- | Low -- °F
Precip. -- in
5:59 AM 8:32 PM
Full, 100% visible
Pressure 29.86 in
Visibility 10.0 miles
Clouds Few 5000 ft
Dew Point 63 °F
Humidity 83%
Rainfall 0.00 in
Snow Depth Not available.
UV 0 out of 12
Pollen 6.30 out of 12
Air Quality Not available.
Flu Activity Not available.
METAR KROC 310354Z 23007KT 10SM FEW050 21/18 A2986 RMK AO2 SLP112 T02060178

More Conditions Fewer Conditions

Pressure 29.86 in
Visibility 10.0 miles
Clouds Few 5000 ft
Dew Point 63 °F
Humidity 83%
Rainfall 0.00 in
Snow Depth Not available.
UV 0 out of 12
Pollen 6.30 out of 12
Air Quality Not available.
Flu Activity Not available.
METAR KROC 310354Z 23007KT 10SM FEW050 21/18 A2986 RMK AO2 SLP112 T02060178

More Conditions Fewer Conditions

10-Day Weather Forecast

×

Almanac

Astronomy

Jul. 31, 2015 Rise Set
Actual Time
Civil Twilight
Nautical Twilight
Astronomical Twilight
Moon
Length of Visible Light
Length of Day
Tomorrow will be .
, % of the Moon is Illuminated

Today's Extremes

State Highs State Lows

Community

WunderPhotos

Upload Photos

1,842,608 photos uploaded!

WunderBlogs® & News

Nearby

Air Quality

  Air Quality AQ Index Pollutant
Not available.

Snow Depth

Station Depth Elevation

Earthquake Activity

City Distance Mag. Time & Date
Minimum magnitude displayed is 2.5.

Coastal Water Temperatures

Place Temperature

Stations

Nearby Weather Stations

Station Location Temp. Windchill Dew Point Humidity Wind Precip. Elev Updated Type